LFRM/LME METAR and TAF weather

Enter ICAO airport designator
Station Type Date Time Source
LFRM METAR 2020/11/28 20:30 UTC NOAA

LFRM 282030Z AUTO 04006KT CAVOK 08/05 Q1017


Station Type Date Time Source
LFRM Decoded METAR 2020/11/28 20:30 UTC NOAA

Le Mans, France (LFRM) 47-56N 000-12E 52M
Nov 28, 2020 - 03:30 PM EST / 2020.11.28 2030 UTC
Wind: from the NE (040 degrees) at 7 MPH (6 KT):0
Visibility: greater than 7 mile(s):0
Temperature: 46 F (8 C)
Dew Point: 41 F (5 C)
Relative Humidity: 81%
Pressure (altimeter): 30.03 in. Hg (1017 hPa)
ob: LFRM 282030Z AUTO 04006KT CAVOK 08/05 Q1017
cycle: 20

Station Type Date Time Source
LFRM TAF 2020/11/28 19:57 UTC NOAA

TAF TAF LFRM 281952Z 2819/2912 CNL

Example: see airport list